Time,TemperatureF,DewpointF,PressureIn,WindDirection,WindDirectionDegrees,WindSpeedMPH,WindSpeedGustMPH,Humidity,HourlyPrecipIn,Conditions,Clouds,dailyrainin,SolarRadiationWatts/m^2,SoftwareType,DateUTC
2013-06-08 00:07:00,47.6,34.0,29.72,North,360,0.0,0.0,59,0.00,,,0.00,0,weatherlink.com 1.10,2013-06-08 06:07:00,
2013-06-08 00:22:00,47.6,33.0,29.72,North,360,0.0,0.0,58,0.00,,,0.00,0,weatherlink.com 1.10,2013-06-08 06:22:00,
2013-06-08 00:37:00,47.8,34.0,29.71,North,360,0.0,0.0,59,0.00,,,0.00,0,weatherlink.com 1.10,2013-06-08 06:37:00,
2013-06-08 00:53:00,47.7,35.0,29.71,North,360,0.0,0.0,61,0.00,,,0.00,0,weatherlink.com 1.10,2013-06-08 06:53:00,
2013-06-08 01:08:00,46.5,34.0,29.71,North,360,0.0,0.0,62,0.00,,,0.00,0,weatherlink.com 1.10,2013-06-08 07:08:00,
2013-06-08 01:23:00,45.4,33.0,29.70,North,360,0.0,0.0,63,0.00,,,0.00,0,weatherlink.com 1.10,2013-06-08 07:23:00,
2013-06-08 01:38:00,45.8,34.0,29.70,North,360,1.0,1.0,63,0.00,,,0.00,0,weatherlink.com 1.10,2013-06-08 07:38:00,
2013-06-08 01:53:00,47.3,33.0,29.70,North,360,0.0,0.0,58,0.00,,,0.00,0,weatherlink.com 1.10,2013-06-08 07:53:00,
2013-06-08 02:08:00,48.4,32.0,29.69,North,360,0.0,0.0,54,0.00,,,0.00,0,weatherlink.com 1.10,2013-06-08 08:08:00,
2013-06-08 02:23:00,47.4,32.0,29.69,North,360,0.0,0.0,55,0.00,,,0.00,0,weatherlink.com 1.10,2013-06-08 08:23:00,
2013-06-08 02:38:00,47.7,32.0,29.68,North,360,0.0,0.0,54,0.00,,,0.00,0,weatherlink.com 1.10,2013-06-08 08:38:00,
2013-06-08 02:53:00,47.8,32.0,29.68,North,360,0.0,0.0,54,0.00,,,0.00,0,weatherlink.com 1.10,2013-06-08 08:53:00,
2013-06-08 03:08:00,47.7,32.0,29.68,North,360,0.0,1.0,55,0.00,,,0.00,0,weatherlink.com 1.10,2013-06-08 09:08:00,
2013-06-08 03:23:00,47.8,32.0,29.68,North,360,0.0,0.0,55,0.00,,,0.00,0,weatherlink.com 1.10,2013-06-08 09:23:00,
2013-06-08 03:38:00,46.6,32.0,29.68,North,360,0.0,1.0,57,0.00,,,0.00,0,weatherlink.com 1.10,2013-06-08 09:38:00,
2013-06-08 03:53:00,47.2,32.0,29.67,North,360,0.0,1.0,57,0.00,,,0.00,0,weatherlink.com 1.10,2013-06-08 09:53:00,
2013-06-08 04:08:00,46.1,32.0,29.66,North,360,0.0,2.0,58,0.00,,,0.00,0,weatherlink.com 1.10,2013-06-08 10:08:00,
2013-06-08 04:23:00,46.0,33.0,29.66,North,360,0.0,0.0,60,0.00,,,0.00,0,weatherlink.com 1.10,2013-06-08 10:23:00,
2013-06-08 04:38:00,47.2,33.0,29.64,North,360,0.0,0.0,58,0.00,,,0.00,0,weatherlink.com 1.10,2013-06-08 10:38:00,
2013-06-08 04:53:00,47.1,32.0,29.64,North,360,0.0,0.0,57,0.00,,,0.00,0,weatherlink.com 1.10,2013-06-08 10:53:00,
2013-06-08 05:08:00,46.9,33.0,29.64,North,360,0.0,0.0,58,0.00,,,0.00,0,weatherlink.com 1.10,2013-06-08 11:08:00,
2013-06-08 05:23:00,45.7,32.0,29.64,North,360,0.0,2.0,59,0.00,,,0.00,0,weatherlink.com 1.10,2013-06-08 11:23:00,
2013-06-08 05:38:00,46.6,33.0,29.65,North,360,0.0,1.0,60,0.00,,,0.00,0,weatherlink.com 1.10,2013-06-08 11:38:00,
2013-06-08 05:53:00,47.5,33.0,29.65,North,360,0.0,0.0,58,0.00,,,0.00,5,weatherlink.com 1.10,2013-06-08 11:53:00,
2013-06-08 06:08:00,47.1,33.0,29.65,North,360,0.0,0.0,59,0.00,,,0.00,11,weatherlink.com 1.10,2013-06-08 12:08:00,
2013-06-08 06:23:00,48.0,34.0,29.65,North,360,0.0,0.0,58,0.00,,,0.00,25,weatherlink.com 1.10,2013-06-08 12:23:00,
2013-06-08 06:38:00,49.8,34.0,29.64,ESE,113,0.0,0.0,56,0.00,,,0.00,26,weatherlink.com 1.10,2013-06-08 12:38:00,
2013-06-08 06:53:00,50.9,34.0,29.64,ESE,112,0.0,0.0,53,0.00,,,0.00,46,weatherlink.com 1.10,2013-06-08 12:53:00,
2013-06-08 07:08:00,52.6,35.0,29.63,ESE,112,0.0,0.0,51,0.00,,,0.00,60,weatherlink.com 1.10,2013-06-08 13:08:00,
2013-06-08 07:23:00,53.9,35.0,29.64,ESE,112,0.0,0.0,49,0.00,,,0.00,77,weatherlink.com 1.10,2013-06-08 13:23:00,
2013-06-08 07:38:00,54.6,35.0,29.64,SE,136,0.0,1.0,48,0.00,,,0.00,91,weatherlink.com 1.10,2013-06-08 13:38:00,
2013-06-08 07:53:00,55.3,35.0,29.63,SSW,200,2.0,3.0,47,0.00,,,0.00,139,weatherlink.com 1.10,2013-06-08 13:53:00,
2013-06-08 08:08:00,56.2,36.0,29.63,WSW,238,1.0,3.0,47,0.00,,,0.00,144,weatherlink.com 1.10,2013-06-08 14:08:00,
2013-06-08 08:24:00,57.1,36.0,29.63,West,277,2.0,3.0,45,0.00,,,0.00,178,weatherlink.com 1.10,2013-06-08 14:24:00,
2013-06-08 08:39:00,57.3,36.0,29.63,WSW,255,1.0,5.0,46,0.00,,,0.00,192,weatherlink.com 1.10,2013-06-08 14:39:00,
2013-06-08 08:54:00,57.7,36.0,29.62,WSW,250,0.0,4.0,45,0.00,,,0.00,227,weatherlink.com 1.10,2013-06-08 14:54:00,
2013-06-08 09:09:00,57.8,36.0,29.62,West,269,1.0,3.0,44,0.00,,,0.00,202,weatherlink.com 1.10,2013-06-08 15:09:00,
2013-06-08 09:24:00,58.9,36.0,29.61,WSW,252,1.0,4.0,43,0.00,,,0.00,230,weatherlink.com 1.10,2013-06-08 15:24:00,
2013-06-08 09:39:00,59.6,36.0,29.61,West,280,2.0,4.0,41,0.00,,,0.00,243,weatherlink.com 1.10,2013-06-08 15:39:00,
2013-06-08 09:54:00,60.3,36.0,29.60,West,279,2.0,4.0,40,0.00,,,0.00,287,weatherlink.com 1.10,2013-06-08 15:54:00,
2013-06-08 10:09:00,61.1,36.0,29.60,SW,222,0.0,4.0,40,0.00,,,0.00,246,weatherlink.com 1.10,2013-06-08 16:09:00,
2013-06-08 10:24:00,60.5,35.0,29.60,WNW,282,2.0,6.0,38,0.00,,,0.00,352,weatherlink.com 1.10,2013-06-08 16:24:00,
2013-06-08 10:39:00,62.2,34.0,29.61,WSW,249,2.0,6.0,35,0.00,,,0.00,469,weatherlink.com 1.10,2013-06-08 16:39:00,
2013-06-08 10:54:00,62.5,34.0,29.61,SE,129,1.0,4.0,34,0.00,,,0.00,424,weatherlink.com 1.10,2013-06-08 16:54:00,
2013-06-08 11:09:00,65.1,34.0,29.61,NW,311,0.0,5.0,32,0.00,,,0.00,949,weatherlink.com 1.10,2013-06-08 17:09:00,
2013-06-08 11:24:00,65.9,34.0,29.60,ESE,116,1.0,4.0,31,0.00,,,0.00,821,weatherlink.com 1.10,2013-06-08 17:24:00,
2013-06-08 11:39:00,69.4,32.0,29.59,NW,306,4.0,8.0,25,0.00,,,0.00,967,weatherlink.com 1.10,2013-06-08 17:39:00,
2013-06-08 11:54:00,70.9,32.0,29.59,NW,306,4.0,6.0,24,0.00,,,0.00,993,weatherlink.com 1.10,2013-06-08 17:54:00,
2013-06-08 12:09:00,71.9,32.0,29.59,SW,232,3.0,9.0,23,0.00,,,0.00,1007,weatherlink.com 1.10,2013-06-08 18:09:00,
2013-06-08 12:24:00,73.7,34.0,29.59,SW,229,3.0,9.0,23,0.00,,,0.00,1016,weatherlink.com 1.10,2013-06-08 18:24:00,
2013-06-08 12:39:00,74.4,32.0,29.58,NW,313,5.0,6.0,21,0.00,,,0.00,1039,weatherlink.com 1.10,2013-06-08 18:39:00,
2013-06-08 12:54:00,74.0,30.0,29.58,West,260,6.0,6.0,20,0.00,,,0.00,174,weatherlink.com 1.10,2013-06-08 18:54:00,
2013-06-08 13:09:00,72.6,27.0,29.57,WNW,286,2.0,4.0,18,0.00,,,0.00,109,weatherlink.com 1.10,2013-06-08 19:09:00,
2013-06-08 13:24:00,72.6,28.0,29.57,WSW,257,3.0,9.0,19,0.00,,,0.00,1088,weatherlink.com 1.10,2013-06-08 19:24:00,
2013-06-08 13:39:00,72.3,31.0,29.56,West,280,2.0,7.0,22,0.00,,,0.00,1192,weatherlink.com 1.10,2013-06-08 19:39:00,
2013-06-08 13:55:00,74.7,31.0,29.56,West,277,4.0,8.0,20,0.00,,,0.00,1081,weatherlink.com 1.10,2013-06-08 19:55:00,
2013-06-08 14:10:00,77.0,32.0,29.57,West,277,3.0,7.0,19,0.00,,,0.00,1062,weatherlink.com 1.10,2013-06-08 20:10:00,
2013-06-08 14:25:00,75.9,29.0,29.56,ESE,108,0.0,8.0,18,0.00,,,0.00,1046,weatherlink.com 1.10,2013-06-08 20:25:00,
2013-06-08 14:40:00,76.3,31.0,29.56,WSW,253,1.0,8.0,19,0.00,,,0.00,1065,weatherlink.com 1.10,2013-06-08 20:40:00,
2013-06-08 14:55:00,77.2,33.0,29.55,WNW,295,4.0,7.0,20,0.00,,,0.00,986,weatherlink.com 1.10,2013-06-08 20:55:00,
2013-06-08 15:10:00,74.3,29.0,29.54,WSW,245,2.0,5.0,19,0.00,,,0.00,1076,weatherlink.com 1.10,2013-06-08 21:10:00,
2013-06-08 15:25:00,75.8,31.0,29.54,WNW,299,4.0,6.0,19,0.00,,,0.00,113,weatherlink.com 1.10,2013-06-08 21:25:00,
2013-06-08 15:40:00,72.3,30.0,29.55,WSW,238,3.0,7.0,21,0.00,,,0.00,102,weatherlink.com 1.10,2013-06-08 21:40:00,
2013-06-08 15:55:00,76.4,34.0,29.56,SW,228,8.0,9.0,21,0.00,,,0.00,960,weatherlink.com 1.10,2013-06-08 21:55:00,
2013-06-08 16:10:00,70.4,33.0,29.57,SW,223,6.0,8.0,25,0.00,,,0.00,309,weatherlink.com 1.10,2013-06-08 22:10:00,
2013-06-08 16:25:00,69.4,33.0,29.57,NW,304,5.0,10.0,26,0.00,,,0.00,323,weatherlink.com 1.10,2013-06-08 22:25:00,
2013-06-08 16:40:00,74.5,34.0,29.56,West,268,9.0,11.0,23,0.00,,,0.00,728,weatherlink.com 1.10,2013-06-08 22:40:00,
2013-06-08 16:55:00,72.4,36.0,29.56,WNW,288,2.0,5.0,26,0.00,,,0.00,687,weatherlink.com 1.10,2013-06-08 22:55:00,
2013-06-08 17:10:00,72.6,36.0,29.56,WNW,300,2.0,6.0,26,0.00,,,0.00,643,weatherlink.com 1.10,2013-06-08 23:10:00,
2013-06-08 17:25:00,72.3,35.0,29.55,WSW,243,1.0,5.0,26,0.00,,,0.00,592,weatherlink.com 1.10,2013-06-08 23:25:00,
2013-06-08 17:40:00,74.7,36.0,29.54,WNW,297,2.0,5.0,24,0.00,,,0.00,599,weatherlink.com 1.10,2013-06-08 23:40:00,
2013-06-08 17:55:00,74.4,32.0,29.53,West,263,2.0,2.0,21,0.00,,,0.00,538,weatherlink.com 1.10,2013-06-08 23:55:00,
2013-06-08 18:10:00,75.9,32.0,29.54,WSW,250,0.0,5.0,20,0.00,,,0.00,492,weatherlink.com 1.10,2013-06-09 00:10:00,
2013-06-08 18:25:00,72.2,38.0,29.55,NNE,21,1.0,7.0,29,0.00,,,0.00,459,weatherlink.com 1.10,2013-06-09 00:25:00,
2013-06-08 18:40:00,68.4,36.0,29.54,ENE,57,1.0,6.0,30,0.00,,,0.00,128,weatherlink.com 1.10,2013-06-09 00:40:00,
2013-06-08 18:55:00,68.7,38.0,29.55,NE,43,2.0,5.0,32,0.00,,,0.00,297,weatherlink.com 1.10,2013-06-09 00:55:00,
2013-06-08 19:10:00,66.3,38.0,29.56,NNE,31,5.0,8.0,36,0.00,,,0.00,98,weatherlink.com 1.10,2013-06-09 01:10:00,
2013-06-08 19:25:00,64.8,38.0,29.56,NE,52,3.0,5.0,38,0.00,,,0.00,33,weatherlink.com 1.10,2013-06-09 01:25:00,
2013-06-08 19:40:00,64.0,38.0,29.57,East,80,2.0,5.0,39,0.00,,,0.00,25,weatherlink.com 1.10,2013-06-09 01:40:00,
2013-06-08 19:55:00,63.0,39.0,29.58,NE,49,1.0,5.0,41,0.00,,,0.00,18,weatherlink.com 1.10,2013-06-09 01:55:00,
2013-06-08 20:10:00,61.9,40.0,29.58,NNE,24,3.0,9.0,44,0.00,,,0.00,5,weatherlink.com 1.10,2013-06-09 02:10:00,
2013-06-08 20:25:00,60.5,40.0,29.59,ENE,59,1.0,7.0,48,0.00,,,0.00,0,weatherlink.com 1.10,2013-06-09 02:25:00,
2013-06-08 20:40:00,59.7,41.0,29.60,NE,41,1.0,4.0,50,0.00,,,0.00,0,weatherlink.com 1.10,2013-06-09 02:40:00,
2013-06-08 20:55:00,59.3,41.0,29.60,NE,50,0.0,3.0,51,0.00,,,0.00,0,weatherlink.com 1.10,2013-06-09 02:55:00,
2013-06-08 21:10:00,59.1,41.0,29.61,NE,49,1.0,4.0,52,0.00,,,0.00,0,weatherlink.com 1.10,2013-06-09 03:10:00,
2013-06-08 21:25:00,58.9,42.0,29.61,NE,49,1.0,6.0,53,0.00,,,0.00,0,weatherlink.com 1.10,2013-06-09 03:25:00,
2013-06-08 21:40:00,58.6,42.0,29.62,ESE,106,1.0,5.0,55,0.00,,,0.00,0,weatherlink.com 1.10,2013-06-09 03:40:00,
2013-06-08 21:55:00,58.2,42.0,29.62,North,360,1.0,6.0,56,0.00,,,0.00,0,weatherlink.com 1.10,2013-06-09 03:55:00,
2013-06-08 22:10:00,57.9,43.0,29.63,North,360,3.0,4.0,57,0.00,,,0.00,0,weatherlink.com 1.10,2013-06-09 04:10:00,
2013-06-08 22:25:00,57.6,42.0,29.63,North,360,2.0,5.0,57,0.00,,,0.00,0,weatherlink.com 1.10,2013-06-09 04:25:00,
2013-06-08 22:40:00,57.5,43.0,29.63,North,360,2.0,9.0,58,0.00,,,0.00,0,weatherlink.com 1.10,2013-06-09 04:40:00,
2013-06-08 22:55:00,56.6,42.0,29.64,North,360,2.0,7.0,59,0.00,,,0.00,0,weatherlink.com 1.10,2013-06-09 04:55:00,
2013-06-08 23:10:00,55.6,42.0,29.63,North,5,1.0,5.0,61,0.00,,,0.00,0,weatherlink.com 1.10,2013-06-09 05:10:00,
2013-06-08 23:25:00,54.4,42.0,29.64,NE,38,1.0,7.0,63,0.00,,,0.00,0,weatherlink.com 1.10,2013-06-09 05:25:00,
2013-06-08 23:40:00,53.5,41.0,29.64,ENE,62,1.0,4.0,64,0.00,,,0.00,0,weatherlink.com 1.10,2013-06-09 05:40:00,
2013-06-08 23:55:00,53.1,42.0,29.65,NE,47,0.0,5.0,65,0.00,,,0.00,0,weatherlink.com 1.10,2013-06-09 05:55:00,